createdAt,value
2022-08-05T00:01:28.417Z,97043.53
2022-08-05T00:03:57.158Z,97041.94
2022-08-05T00:06:30.684Z,97040.19
2022-08-05T00:09:00.951Z,97031.34
2022-08-05T00:11:30.628Z,97005.97
2022-08-05T00:14:12.948Z,97039.66
2022-08-05T00:16:52.527Z,97038.09
2022-08-05T00:19:23.359Z,97015.94
2022-08-05T00:21:53.923Z,96941.50
2022-08-05T00:24:24.254Z,97038.47
2022-08-05T00:26:53.041Z,97031.31
2022-08-05T00:29:22.762Z,96954.63
2022-08-05T00:32:13.318Z,96976.81
2022-08-05T00:34:55.988Z,97034.41
2022-08-05T00:37:27.438Z,97028.59
2022-08-05T00:40:13.938Z,96985.16
2022-08-05T00:42:49.179Z,97013.47
2022-08-05T00:45:16.773Z,97013.84
2022-08-05T00:47:57.743Z,97024.41
2022-08-05T00:50:32.642Z,96946.53
2022-08-05T00:52:59.558Z,96985.78
2022-08-05T00:55:42.399Z,97017.94
2022-08-05T00:58:13.835Z,97019.13
2022-08-05T01:00:42.106Z,97003.09
2022-08-05T01:03:12.632Z,96969.13
2022-08-05T01:05:50.214Z,97017.72
2022-08-05T01:08:40.885Z,97017.88
2022-08-05T01:11:11.368Z,97014.41
2022-08-05T01:13:58.346Z,96972.91
2022-08-05T01:16:52.534Z,97013.53
2022-08-05T01:19:22.294Z,97019.88
2022-08-05T01:22:24.254Z,97025.78
2022-08-05T01:25:39.998Z,97016.41
2022-08-05T01:28:46.174Z,97007.56
2022-08-05T01:31:44.564Z,96875.34
2022-08-05T01:34:36.314Z,97016.19
2022-08-05T01:37:25.101Z,97001.78
2022-08-05T01:39:59.082Z,97016.94
2022-08-05T01:42:28.114Z,97019.38
2022-08-05T01:45:02.425Z,97017.78
2022-08-05T01:47:39.546Z,96958.34
2022-08-05T01:50:19.089Z,96999.91
2022-08-05T01:52:59.992Z,97012.47
2022-08-05T01:55:29.509Z,97022.88
2022-08-05T01:58:18.801Z,97016.31
2022-08-05T02:00:50.458Z,97013.53
2022-08-05T02:03:34.151Z,97007.56
2022-08-05T02:06:23.937Z,97013.28
2022-08-05T02:08:58.627Z,97010.41
2022-08-05T02:11:33.464Z,97004.41
2022-08-05T02:14:13.211Z,96991.09
2022-08-05T02:16:46.608Z,96953.03
2022-08-05T02:19:34.169Z,97020.72
2022-08-05T02:22:27.281Z,97008.41
2022-08-05T02:25:08.683Z,97008.00
2022-08-05T02:27:59.172Z,97008.03
2022-08-05T02:30:35.240Z,96998.66
2022-08-05T02:33:03.780Z,96927.09
2022-08-05T02:35:37.822Z,96995.41
2022-08-05T02:38:19.159Z,96998.56
2022-08-05T02:40:46.860Z,96989.13
2022-08-05T02:43:15.473Z,96984.00
2022-08-05T02:45:52.451Z,96999.69
2022-08-05T02:48:29.479Z,97005.38
2022-08-05T02:51:00.156Z,97004.81
2022-08-05T02:53:29.191Z,96952.28
2022-08-05T02:56:08.295Z,97004.63
2022-08-05T02:58:37.034Z,96901.47
2022-08-05T03:01:19.544Z,97001.28
2022-08-05T03:04:03.083Z,97000.91
2022-08-05T03:06:56.334Z,96981.78
2022-08-05T03:09:36.281Z,96952.03
2022-08-05T03:12:05.894Z,97005.34
2022-08-05T03:14:32.607Z,97014.19
2022-08-05T03:16:59.858Z,97008.22
2022-08-05T03:19:34.579Z,96992.31
2022-08-05T03:22:05.111Z,96951.28
2022-08-05T03:24:47.026Z,96998.53
2022-08-05T03:27:14.158Z,97017.91
2022-08-05T03:29:45.551Z,96969.06
2022-08-05T03:32:30.677Z,96959.31
2022-08-05T03:34:58.038Z,96998.75
2022-08-05T03:37:25.128Z,96950.63
2022-08-05T03:39:59.487Z,96968.66
2022-08-05T03:42:32.099Z,97125.97
2022-08-05T03:44:59.275Z,97009.41
2022-08-05T03:47:30.375Z,97010.56
2022-08-05T03:50:01.972Z,96975.66
2022-08-05T03:52:49.156Z,97013.94
2022-08-05T03:56:05.970Z,97008.41
2022-08-05T03:58:22.924Z,97014.75
2022-08-05T04:00:57.946Z,97008.56
2022-08-05T04:03:29.233Z,97000.63
2022-08-05T04:05:57.917Z,96935.72
2022-08-05T04:08:34.758Z,96951.91
2022-08-05T04:11:05.259Z,97007.91
2022-08-05T04:13:50.336Z,97011.03
2022-08-05T04:16:24.996Z,97006.38
2022-08-05T04:18:54.180Z,96984.34
2022-08-05T04:22:10.006Z,96940.72
2022-08-05T04:24:08.852Z,96886.59
2022-08-05T04:26:35.916Z,96959.56
2022-08-05T04:29:07.366Z,96991.56
2022-08-05T04:31:38.537Z,96991.84
2022-08-05T04:34:31.450Z,96986.94
2022-08-05T04:36:53.140Z,96981.59
2022-08-05T04:39:20.771Z,96963.78
2022-08-05T04:41:50.987Z,96987.16
2022-08-05T04:44:29.051Z,96977.09
2022-08-05T04:47:09.060Z,96994.91
2022-08-05T04:50:01.381Z,96937.88
2022-08-05T04:52:23.428Z,96978.38
2022-08-05T04:54:54.158Z,96979.66
2022-08-05T04:57:29.082Z,96980.88
2022-08-05T04:59:58.432Z,96974.03
2022-08-05T05:02:36.679Z,96960.25
2022-08-05T05:05:16.518Z,96922.41
2022-08-05T05:07:56.654Z,96974.97
2022-08-05T05:10:29.535Z,96962.22
2022-08-05T05:12:56.754Z,96901.34
2022-08-05T05:15:56.211Z,96948.53
2022-08-05T05:18:31.559Z,96956.72
2022-08-05T05:21:00.426Z,96894.81
2022-08-05T05:23:27.092Z,96955.38
2022-08-05T05:26:13.698Z,96947.78
2022-08-05T05:28:42.874Z,96904.44
2022-08-05T05:31:11.886Z,96946.50
2022-08-05T05:33:43.394Z,96948.97
2022-08-05T05:36:25.150Z,96947.41
2022-08-05T05:38:57.233Z,96942.44
2022-08-05T05:41:24.163Z,96943.38
2022-08-05T05:43:58.362Z,96940.78
2022-08-05T05:46:27.042Z,96941.75
2022-08-05T05:48:53.700Z,96910.97
2022-08-05T05:51:24.512Z,96933.72
2022-08-05T05:53:57.239Z,96943.13
2022-08-05T05:56:33.021Z,96938.47
2022-08-05T05:59:06.762Z,96949.03
2022-08-05T06:01:38.061Z,96952.13
2022-08-05T06:04:07.260Z,96959.69
2022-08-05T06:06:34.695Z,96955.47
2022-08-05T06:09:03.829Z,96950.81
2022-08-05T06:11:30.976Z,96893.81
2022-08-05T06:13:58.048Z,96924.19
2022-08-05T06:16:36.973Z,96931.50
2022-08-05T06:19:07.905Z,96946.19
2022-08-05T06:21:37.856Z,96946.94
2022-08-05T06:24:12.133Z,96946.22
2022-08-05T06:26:51.747Z,96890.19
2022-08-05T06:29:26.488Z,96941.69
2022-08-05T06:32:21.256Z,96949.97
2022-08-05T06:34:57.113Z,96949.47
2022-08-05T06:37:56.301Z,96937.97
2022-08-05T06:40:18.521Z,96893.16
2022-08-05T06:42:51.639Z,96944.50
2022-08-05T06:45:21.277Z,96898.72
2022-08-05T06:48:36.988Z,96944.00
2022-08-05T06:50:53.019Z,96929.41
2022-08-05T06:53:28.035Z,96935.00
2022-08-05T06:55:55.992Z,96940.75
2022-08-05T06:58:35.033Z,96929.03
2022-08-05T07:01:05.028Z,96932.03
2022-08-05T07:03:33.338Z,96918.69
2022-08-05T07:06:06.101Z,96907.78
2022-08-05T07:08:47.534Z,96906.53
2022-08-05T07:11:15.933Z,96885.09
2022-08-05T07:14:02.187Z,96917.84
2022-08-05T07:18:08.589Z,96938.69
2022-08-05T07:22:28.307Z,96933.59
2022-08-05T07:25:23.339Z,96936.44
2022-08-05T07:27:57.992Z,96938.66
2022-08-05T07:30:32.162Z,96919.19
2022-08-05T07:33:00.121Z,96938.22
2022-08-05T07:36:02.656Z,96927.19
2022-08-05T07:38:32.493Z,96931.84
2022-08-05T07:41:16.778Z,96932.03
2022-08-05T07:43:49.910Z,96928.03
2022-08-05T07:46:24.709Z,96929.16
2022-08-05T07:49:01.428Z,96916.53
2022-08-05T07:51:36.159Z,96921.47
2022-08-05T07:54:04.975Z,96926.03
2022-08-05T07:57:00.202Z,96928.91
2022-08-05T07:59:21.870Z,96911.97
2022-08-05T08:01:52.195Z,96940.97
2022-08-05T08:04:37.487Z,96898.56
2022-08-05T08:07:07.242Z,96921.66
2022-08-05T08:09:34.666Z,96839.66
2022-08-05T08:12:09.158Z,96916.13
2022-08-05T08:14:46.548Z,96913.09
2022-08-05T08:17:16.082Z,96919.88
2022-08-05T08:20:22.899Z,96921.72
2022-08-05T08:22:32.320Z,96879.31
2022-08-05T08:25:02.783Z,96889.28
2022-08-05T08:27:35.818Z,96922.50
2022-08-05T08:30:28.479Z,96915.38
2022-08-05T08:33:02.752Z,96913.56
2022-08-05T08:35:35.246Z,96885.91
2022-08-05T08:38:11.640Z,96897.59
2022-08-05T08:40:46.726Z,96908.50
2022-08-05T08:45:20.047Z,96852.13
2022-08-05T08:46:06.436Z,96874.09
2022-08-05T08:49:03.251Z,96905.22
2022-08-05T08:52:03.171Z,96857.03
2022-08-05T08:54:18.295Z,96841.19
2022-08-05T08:56:47.638Z,96890.84
2022-08-05T08:59:20.703Z,96856.84
2022-08-05T09:01:57.425Z,96896.81
2022-08-05T09:04:30.157Z,96819.25
2022-08-05T09:06:57.545Z,96893.94
2022-08-05T09:09:25.215Z,96890.75
2022-08-05T09:11:54.809Z,96757.38
2022-08-05T09:14:56.575Z,96883.28
2022-08-05T09:17:40.950Z,96881.56
2022-08-05T09:20:05.247Z,96879.84
2022-08-05T09:23:05.037Z,96883.41
2022-08-05T09:25:59.803Z,96881.50
2022-08-05T09:28:31.561Z,96872.53
2022-08-05T09:31:22.753Z,96870.69
2022-08-05T09:34:01.450Z,96875.97
2022-08-05T09:36:55.034Z,96832.94
2022-08-05T09:39:39.137Z,96812.50
2022-08-05T09:42:17.348Z,96839.69
2022-08-05T09:44:51.737Z,96870.78
2022-08-05T09:47:20.826Z,96866.06
2022-08-05T09:50:01.350Z,96863.91
2022-08-05T09:52:34.707Z,96871.00
2022-08-05T09:55:56.965Z,96861.88
2022-08-05T09:57:58.587Z,96854.50
2022-08-05T10:00:26.917Z,96862.69
2022-08-05T10:02:54.942Z,96839.03
2022-08-05T10:05:28.276Z,96861.84
2022-08-05T10:08:36.009Z,96869.19
2022-08-05T10:10:48.244Z,96859.56
2022-08-05T10:13:47.133Z,96857.66
2022-08-05T10:16:42.056Z,96850.16
2022-08-05T10:19:23.481Z,96842.47
2022-08-05T10:21:59.198Z,96849.59
2022-08-05T10:24:27.194Z,96827.84
2022-08-05T10:27:00.576Z,96834.72
2022-08-05T10:30:40.931Z,96828.72
2022-08-05T10:32:53.604Z,96832.00
2022-08-05T10:35:03.639Z,96828.38
2022-08-05T10:37:40.220Z,96827.72
2022-08-05T10:40:31.857Z,96810.75
2022-08-05T10:43:06.774Z,96822.75
2022-08-05T10:45:40.178Z,96815.25
2022-08-05T10:48:52.904Z,96833.03
2022-08-05T10:51:28.401Z,96733.31
2022-08-05T10:54:02.052Z,96825.53
2022-08-05T10:56:57.654Z,96806.91
2022-08-05T11:00:02.517Z,96815.06
2022-08-05T11:02:34.602Z,96820.44
2022-08-05T11:05:09.342Z,96811.09
2022-08-05T11:08:02.817Z,96808.00
2022-08-05T11:10:33.277Z,96785.00
2022-08-05T11:13:01.176Z,96806.34
2022-08-05T11:16:00.960Z,96797.47
2022-08-05T11:18:32.672Z,96797.41
2022-08-05T11:21:06.253Z,96802.38
2022-08-05T11:24:04.387Z,96801.72
2022-08-05T11:26:43.137Z,96800.34
2022-08-05T11:29:37.296Z,96790.34
2022-08-05T11:32:29.512Z,96793.78
2022-08-05T11:34:57.488Z,96789.09
2022-08-05T11:38:29.409Z,96788.53
2022-08-05T11:41:34.795Z,96786.31
2022-08-05T11:44:06.621Z,96767.56
2022-08-05T11:46:58.583Z,96782.81
2022-08-05T11:49:28.105Z,96777.06
2022-08-05T11:51:55.137Z,96778.50
2022-08-05T11:54:36.601Z,96768.53
2022-08-05T11:57:08.607Z,96772.41
2022-08-05T11:59:51.664Z,96751.47
2022-08-05T12:02:29.751Z,96745.06
2022-08-05T12:05:01.454Z,96771.13
2022-08-05T12:08:08.220Z,96766.41
2022-08-05T12:10:43.128Z,96718.69
2022-08-05T12:13:16.701Z,96769.75
2022-08-05T12:15:49.627Z,96730.78
2022-08-05T12:18:32.846Z,96757.03
2022-08-05T12:21:15.279Z,96742.66
2022-08-05T12:24:05.144Z,96756.84
2022-08-05T12:26:34.120Z,96761.44
2022-08-05T12:29:01.494Z,96752.56
2022-08-05T12:31:43.671Z,96692.25
2022-08-05T12:34:21.439Z,96723.44
2022-08-05T12:36:53.457Z,96746.00
2022-08-05T12:39:20.650Z,96734.09
2022-08-05T12:41:47.424Z,96624.13
2022-08-05T12:44:28.711Z,96746.06
2022-08-05T12:47:01.818Z,96737.38
2022-08-05T12:50:03.895Z,96740.91
2022-08-05T12:52:32.301Z,96732.56
2022-08-05T12:55:17.024Z,96684.59
2022-08-05T12:58:52.626Z,96725.91
2022-08-05T13:02:01.734Z,96724.00
2022-08-05T13:03:18.205Z,96713.16
2022-08-05T13:05:47.956Z,96646.84
2022-08-05T13:08:19.959Z,96689.69
2022-08-05T13:10:50.639Z,96707.22
2022-08-05T13:14:04.608Z,96724.63
2022-08-05T13:16:13.112Z,96716.59
2022-08-05T13:18:59.726Z,96689.31
2022-08-05T13:21:28.300Z,96707.44
2022-08-05T13:24:05.439Z,96676.00
2022-08-05T13:26:33.298Z,96702.63
2022-08-05T13:29:00.693Z,96710.16
2022-08-05T13:31:33.870Z,96686.91
2022-08-05T13:34:20.956Z,96703.38
2022-08-05T13:36:50.486Z,96709.13
2022-08-05T13:39:24.564Z,96701.94
2022-08-05T13:42:04.394Z,96701.97
2022-08-05T13:44:32.661Z,96664.59
2022-08-05T13:47:08.762Z,96686.41
2022-08-05T13:49:36.351Z,96700.66
2022-08-05T13:52:13.346Z,96697.56
2022-08-05T13:54:40.519Z,96707.16
2022-08-05T13:57:08.447Z,96692.78
2022-08-05T13:59:37.346Z,96703.28
2022-08-05T14:02:26.668Z,96696.22
2022-08-05T14:05:12.032Z,96686.56
2022-08-05T14:07:59.815Z,96691.69
2022-08-05T14:10:31.273Z,96697.28
2022-08-05T14:12:59.636Z,96698.28
2022-08-05T14:16:05.784Z,96653.94
2022-08-05T14:18:18.633Z,96691.13
2022-08-05T14:20:54.552Z,96696.53
2022-08-05T14:23:24.704Z,96692.47
2022-08-05T14:25:54.585Z,96689.56
2022-08-05T14:28:26.763Z,96691.03
2022-08-05T14:30:54.834Z,96676.13
2022-08-05T14:33:24.162Z,96693.47
2022-08-05T14:35:51.622Z,96681.34
2022-08-05T14:38:33.365Z,96686.97
2022-08-05T14:41:05.946Z,96688.22
2022-08-05T14:44:00.122Z,96672.31
2022-08-05T14:46:22.609Z,96642.03
2022-08-05T14:48:55.381Z,96683.25
2022-08-05T14:51:22.157Z,96679.66
2022-08-05T14:54:26.929Z,96679.41
2022-08-05T14:56:44.018Z,96663.53
2022-08-05T14:59:12.752Z,96673.28
2022-08-05T15:01:49.209Z,96678.88
2022-08-05T15:04:22.261Z,96669.66
2022-08-05T15:06:52.700Z,96669.97
2022-08-05T15:09:52.223Z,96663.47
2022-08-05T15:12:09.026Z,96658.63
2022-08-05T15:14:42.232Z,96621.75
2022-08-05T15:17:46.021Z,96661.78
2022-08-05T15:20:04.587Z,96663.59
2022-08-05T15:22:31.283Z,96664.09
2022-08-05T15:24:59.302Z,96659.69
2022-08-05T15:27:26.693Z,96662.16
2022-08-05T15:30:02.743Z,96600.19
2022-08-05T15:32:29.823Z,96662.41
2022-08-05T15:34:58.365Z,96658.69
2022-08-05T15:38:33.218Z,96669.78
2022-08-05T15:41:00.647Z,96648.38
2022-08-05T15:43:08.068Z,96650.97
2022-08-05T15:45:45.647Z,96594.63
2022-08-05T15:48:14.427Z,96653.31
2022-08-05T15:50:43.654Z,96660.06
2022-08-05T15:53:12.633Z,96643.94
2022-08-05T15:56:04.239Z,96652.81
2022-08-05T15:58:28.241Z,96651.50
2022-08-05T16:01:11.693Z,96651.22
2022-08-05T16:03:42.574Z,96605.59
2022-08-05T16:06:11.314Z,96649.38
2022-08-05T16:08:38.839Z,96592.81
2022-08-05T16:11:07.107Z,96610.00
2022-08-05T16:13:35.316Z,96653.28
2022-08-05T16:16:04.923Z,96654.34
2022-08-05T16:18:33.163Z,96632.47
2022-08-05T16:21:04.620Z,96593.41
2022-08-05T16:23:53.180Z,96639.31
2022-08-05T16:26:18.875Z,96649.25
2022-08-05T16:28:53.011Z,96595.97
2022-08-05T16:31:21.582Z,96655.09
2022-08-05T16:33:48.987Z,96659.34
2022-08-05T16:36:20.439Z,96652.53
2022-08-05T16:38:55.200Z,96662.81
2022-08-05T16:42:12.723Z,96649.09
2022-08-05T16:44:11.562Z,96653.75
2022-08-05T16:46:41.140Z,96631.53
2022-08-05T16:49:10.098Z,96665.53
2022-08-05T16:51:50.258Z,96662.38
2022-08-05T16:54:24.900Z,96632.34
2022-08-05T16:56:54.140Z,96658.72
2022-08-05T16:59:20.899Z,96661.09
2022-08-05T17:01:54.925Z,96662.88
2022-08-05T17:04:27.296Z,96625.34
2022-08-05T17:06:55.938Z,96670.56
2022-08-05T17:09:27.709Z,96666.34
2022-08-05T17:11:59.683Z,96625.59
2022-08-05T17:14:37.422Z,96672.13
2022-08-05T17:17:14.505Z,96659.28
2022-08-05T17:19:45.630Z,96664.56
2022-08-05T17:22:24.672Z,96681.94
2022-08-05T17:24:58.304Z,96687.94
2022-08-05T17:27:33.939Z,96682.34
2022-08-05T17:30:02.495Z,96650.91
2022-08-05T17:32:30.184Z,96687.66
2022-08-05T17:35:00.514Z,96656.72
2022-08-05T17:37:41.120Z,96697.13
2022-08-05T17:40:12.705Z,96689.75
2022-08-05T17:42:42.853Z,96694.66
2022-08-05T17:45:20.074Z,96695.63
2022-08-05T17:47:53.009Z,96700.41
2022-08-05T17:50:28.571Z,96704.59
2022-08-05T17:52:59.061Z,96701.69
2022-08-05T17:55:34.578Z,96641.91
2022-08-05T17:58:06.950Z,96705.81
2022-08-05T18:00:36.198Z,96718.22
2022-08-05T18:03:07.882Z,96717.06
2022-08-05T18:05:36.275Z,96692.78
2022-08-05T18:08:03.595Z,96721.22
2022-08-05T18:10:32.171Z,96707.88
2022-08-05T18:13:01.995Z,96739.91
2022-08-05T18:15:35.148Z,96733.03
2022-08-05T18:18:11.187Z,96712.13
2022-08-05T18:20:38.927Z,96728.91
2022-08-05T18:23:09.008Z,96748.16
2022-08-05T18:25:39.227Z,96749.22
2022-08-05T18:28:07.124Z,96747.75
2022-08-05T18:30:36.249Z,96763.31
2022-08-05T18:33:06.317Z,96760.00
2022-08-05T18:36:00.670Z,96671.38
2022-08-05T18:38:26.165Z,96709.56
2022-08-05T18:41:53.267Z,96761.97
2022-08-05T18:43:43.132Z,96718.38
2022-08-05T18:46:15.447Z,96704.63
2022-08-05T18:48:46.581Z,96764.00
2022-08-05T18:52:02.728Z,96758.50
2022-08-05T18:54:19.708Z,96663.63
2022-08-05T18:56:51.118Z,96765.81
2022-08-05T18:59:42.908Z,96776.56
2022-08-05T19:02:11.510Z,96735.63
2022-08-05T19:05:01.737Z,96781.00
2022-08-05T19:07:45.599Z,96670.13
2022-08-05T19:10:13.285Z,96773.44
2022-08-05T19:12:40.433Z,96786.97
2022-08-05T19:15:25.200Z,96781.00
2022-08-05T19:18:08.075Z,96792.94
2022-08-05T19:20:41.570Z,96785.41
2022-08-05T19:24:04.119Z,96780.06
2022-08-05T19:26:01.716Z,96768.69
2022-08-05T19:28:30.540Z,96427.88
2022-08-05T19:30:57.930Z,96778.72
2022-08-05T19:33:35.872Z,96758.22
2022-08-05T19:36:06.463Z,96726.97
2022-08-05T19:38:35.570Z,96780.53
2022-08-05T19:41:07.142Z,96775.19
2022-08-05T19:44:06.192Z,96771.53
2022-08-05T19:46:30.755Z,96780.19
2022-08-05T19:49:01.278Z,96771.66
2022-08-05T19:52:05.070Z,96773.19
2022-08-05T19:54:26.777Z,96771.19
2022-08-05T19:57:06.264Z,96753.22
2022-08-05T19:59:55.339Z,96719.34
2022-08-05T20:02:23.318Z,96772.97
2022-08-05T20:04:50.377Z,96784.91
2022-08-05T20:07:47.899Z,96775.47
2022-08-05T20:10:13.512Z,96776.66
2022-08-05T20:12:47.521Z,96760.22
2022-08-05T20:15:48.707Z,96768.75
2022-08-05T20:18:10.617Z,96768.91
2022-08-05T20:20:56.216Z,96706.84
2022-08-05T20:23:39.987Z,96666.50
2022-08-05T20:26:15.986Z,96765.13
2022-08-05T20:28:48.585Z,96762.28
2022-08-05T20:31:16.574Z,96768.34
2022-08-05T20:33:44.709Z,96762.53
2022-08-05T20:36:11.862Z,96680.34
2022-08-05T20:38:53.421Z,96769.78
2022-08-05T20:41:26.755Z,96769.84
2022-08-05T20:43:59.155Z,96665.56
2022-08-05T20:46:29.536Z,96724.34
2022-08-05T20:48:56.264Z,96766.84
2022-08-05T20:51:23.215Z,96758.75
2022-08-05T20:53:56.809Z,96759.78
2022-08-05T20:56:30.892Z,96752.56
2022-08-05T20:59:14.309Z,96751.44
2022-08-05T21:01:47.045Z,96763.16
2022-08-05T21:04:14.105Z,96749.72
2022-08-05T21:06:45.126Z,96763.41
2022-08-05T21:09:14.565Z,96765.31
2022-08-05T21:12:06.938Z,96736.22
2022-08-05T21:14:35.320Z,96767.13
2022-08-05T21:17:05.150Z,96701.81
2022-08-05T21:19:46.570Z,96760.56
2022-08-05T21:22:18.504Z,96704.53
2022-08-05T21:24:51.691Z,96762.97
2022-08-05T21:27:20.630Z,96761.03
2022-08-05T21:29:52.244Z,96763.66
2022-08-05T21:32:20.967Z,96770.78
2022-08-05T21:35:08.237Z,96763.09
2022-08-05T21:37:41.220Z,96764.19
2022-08-05T21:40:13.064Z,96691.31
2022-08-05T21:42:44.544Z,96768.38
2022-08-05T21:45:13.634Z,96767.38
2022-08-05T21:47:56.325Z,96771.84
2022-08-05T21:50:26.187Z,96736.41
2022-08-05T21:52:53.217Z,96771.97
2022-08-05T21:56:00.821Z,96765.19
2022-08-05T21:58:10.311Z,96773.66
2022-08-05T22:00:38.406Z,96751.19
2022-08-05T22:03:06.939Z,96764.84
2022-08-05T22:05:48.673Z,96734.34
2022-08-05T22:08:22.230Z,96749.25
2022-08-05T22:10:51.586Z,96765.97
2022-08-05T22:14:33.136Z,96748.59
2022-08-05T22:16:20.455Z,96765.06
2022-08-05T22:18:53.926Z,96719.94
2022-08-05T22:21:25.523Z,96726.25
2022-08-05T22:24:13.217Z,96762.00
2022-08-05T22:27:17.475Z,96755.22
2022-08-05T22:29:44.501Z,96760.94
2022-08-05T22:32:12.686Z,96756.69
2022-08-05T22:34:44.331Z,96756.59
2022-08-05T22:37:12.684Z,96756.00
2022-08-05T22:39:39.461Z,96743.03
2022-08-05T22:42:12.129Z,96742.66
2022-08-05T22:44:42.597Z,96759.75
2022-08-05T22:47:29.970Z,96748.31
2022-08-05T22:50:19.930Z,96725.66
2022-08-05T22:52:45.197Z,96748.38
2022-08-05T22:55:19.180Z,96761.38
2022-08-05T22:57:47.284Z,96691.75
2022-08-05T23:00:17.873Z,96695.47
2022-08-05T23:02:48.189Z,96756.84
2022-08-05T23:05:15.564Z,96749.19
2022-08-05T23:07:48.613Z,96753.69
2022-08-05T23:10:20.124Z,96744.31
2022-08-05T23:12:51.516Z,96754.91
2022-08-05T23:15:22.145Z,96721.09
2022-08-05T23:18:00.970Z,96732.81
2022-08-05T23:20:30.170Z,96730.22
2022-08-05T23:22:58.778Z,96731.59
2022-08-05T23:25:52.435Z,96756.69
2022-08-05T23:28:12.937Z,96752.38
2022-08-05T23:30:43.761Z,96757.75
2022-08-05T23:33:25.661Z,96762.03
2022-08-05T23:35:55.816Z,96763.09
2022-08-05T23:38:24.269Z,96760.63
2022-08-05T23:40:52.847Z,96751.56
2022-08-05T23:43:25.648Z,96758.88
2022-08-05T23:46:21.440Z,96716.75
2022-08-05T23:48:59.912Z,96732.66
2022-08-05T23:51:53.567Z,96762.72
2022-08-05T23:54:26.700Z,96754.66
2022-08-05T23:57:04.051Z,96762.94
